createdAt,value
2022-11-25T00:00:36.099Z,99.993896
2022-11-25T00:01:44.912Z,99.993896
2022-11-25T00:02:53.582Z,99.993896
2022-11-25T00:04:02.169Z,99.993896
2022-11-25T00:05:11.849Z,99.993896
2022-11-25T00:06:19.552Z,99.993896
2022-11-25T00:07:29.244Z,99.993896
2022-11-25T00:08:38.937Z,99.993896
2022-11-25T00:09:47.736Z,99.993896
2022-11-25T00:10:57.427Z,99.993896
2022-11-25T00:12:06.110Z,99.993896
2022-11-25T00:13:13.778Z,99.993896
2022-11-25T00:14:23.463Z,99.993896
2022-11-25T00:15:33.253Z,99.993896
2022-11-25T00:16:47.878Z,99.993896
2022-11-25T00:17:53.651Z,99.993896
2022-11-25T00:19:02.330Z,99.993896
2022-11-25T00:20:12.034Z,99.993896
2022-11-25T00:21:21.723Z,99.993896
2022-11-25T00:22:31.413Z,99.993896
2022-11-25T00:23:41.072Z,99.993896
2022-11-25T00:24:49.760Z,99.993896
2022-11-25T00:25:58.465Z,99.993896
2022-11-25T00:27:08.186Z,99.993896
2022-11-25T00:28:16.892Z,99.993896
2022-11-25T00:29:25.569Z,99.993896
2022-11-25T00:30:34.279Z,99.993896
2022-11-25T00:31:43.030Z,99.993896
2022-11-25T00:32:52.793Z,99.993896
2022-11-25T00:34:01.448Z,99.993896
2022-11-25T00:35:09.154Z,99.993896
2022-11-25T00:36:18.814Z,99.993896
2022-11-25T00:37:26.465Z,99.993896
2022-11-25T00:38:36.196Z,99.993896
2022-11-25T00:39:45.838Z,99.993896
2022-11-25T00:40:55.515Z,99.993896
2022-11-25T00:42:05.186Z,99.993896
2022-11-25T00:43:13.923Z,99.993896
2022-11-25T00:44:23.624Z,99.993896
2022-11-25T00:45:33.447Z,99.993896
2022-11-25T00:46:40.983Z,99.993896
2022-11-25T00:47:50.660Z,99.993896
2022-11-25T00:48:59.344Z,99.993896
2022-11-25T00:50:08.058Z,99.993896
2022-11-25T00:51:16.745Z,99.993896
2022-11-25T00:52:26.431Z,99.993896
2022-11-25T00:53:36.097Z,99.993896
2022-11-25T00:54:44.800Z,99.993896
2022-11-25T00:56:11.342Z,99.993896
2022-11-25T00:57:20.056Z,99.993896
2022-11-25T00:58:29.740Z,99.993896
2022-11-25T00:59:39.433Z,99.993896
2022-11-25T01:00:48.113Z,99.993896
2022-11-25T01:01:56.849Z,99.993896
2022-11-25T01:03:06.467Z,99.993896
2022-11-25T01:04:15.146Z,99.993896
2022-11-25T01:05:24.822Z,99.993896
2022-11-25T01:06:33.518Z,99.993896
2022-11-25T01:07:42.299Z,99.993896
2022-11-25T01:08:51.937Z,99.993896
2022-11-25T01:09:59.764Z,99.993896
2022-11-25T01:11:08.402Z,99.993896
2022-11-25T01:12:18.096Z,99.993896
2022-11-25T01:13:26.768Z,99.993896
2022-11-25T01:14:36.813Z,99.993896
2022-11-25T01:15:45.116Z,99.993896
2022-11-25T01:16:53.866Z,99.993896
2022-11-25T01:18:03.445Z,99.993896
2022-11-25T01:19:11.111Z,99.993896
2022-11-25T01:20:18.778Z,99.993896
2022-11-25T01:21:28.447Z,99.993896
2022-11-25T01:22:37.127Z,99.993896
2022-11-25T01:23:45.830Z,99.993896
2022-11-25T01:24:55.504Z,99.993896
2022-11-25T01:26:05.292Z,99.993896
2022-11-25T01:27:14.931Z,99.993896
2022-11-25T01:28:22.581Z,99.993896
2022-11-25T01:29:30.314Z,99.993896
2022-11-25T01:30:41.340Z,99.993896
2022-11-25T01:31:49.696Z,99.993896
2022-11-25T01:32:58.301Z,99.993896
2022-11-25T01:34:06.956Z,99.993896
2022-11-25T01:35:15.668Z,99.993896
2022-11-25T01:36:25.339Z,99.993896
2022-11-25T01:37:34.010Z,99.993896
2022-11-25T01:38:41.696Z,99.993896
2022-11-25T01:39:51.408Z,99.993896
2022-11-25T01:41:00.146Z,99.993896
2022-11-25T01:42:09.854Z,99.993896
2022-11-25T01:43:19.508Z,99.993896
2022-11-25T01:44:28.171Z,99.993896
2022-11-25T01:45:37.954Z,99.993896
2022-11-25T01:46:44.558Z,99.993896
2022-11-25T01:47:53.307Z,99.993896
2022-11-25T01:49:02.841Z,99.993896
2022-11-25T01:50:11.515Z,99.993896
2022-11-25T01:51:21.169Z,99.993896
2022-11-25T01:52:29.866Z,99.993896
2022-11-25T01:53:38.505Z,99.993896
2022-11-25T01:54:48.273Z,99.993896
2022-11-25T01:55:58.921Z,99.993896
2022-11-25T01:57:06.601Z,99.993896
2022-11-25T01:58:16.303Z,99.993896
2022-11-25T01:59:25.963Z,99.993896
2022-11-25T02:00:34.683Z,99.993896
2022-11-25T02:01:43.452Z,99.993896
2022-11-25T02:02:52.041Z,99.993896
2022-11-25T02:04:01.808Z,99.993896
2022-11-25T02:05:10.470Z,99.993896
2022-11-25T02:06:19.178Z,99.993896
2022-11-25T02:07:28.868Z,99.993896
2022-11-25T02:08:38.573Z,99.993896
2022-11-25T02:09:48.257Z,99.993896
2022-11-25T02:10:56.914Z,99.993896
2022-11-25T02:12:05.582Z,99.993896
2022-11-25T02:13:14.237Z,99.993896
2022-11-25T02:14:21.925Z,99.993896
2022-11-25T02:15:29.584Z,99.993896
2022-11-25T02:16:39.330Z,99.993896
2022-11-25T02:17:47.920Z,99.993896
2022-11-25T02:18:57.584Z,99.993896
2022-11-25T02:20:07.248Z,99.993896
2022-11-25T02:21:15.927Z,99.993896
2022-11-25T02:22:25.612Z,99.993896
2022-11-25T02:23:34.271Z,99.993896
2022-11-25T02:24:41.935Z,99.993896
2022-11-25T02:25:51.594Z,99.993896
2022-11-25T02:27:01.380Z,99.993896
2022-11-25T02:28:10.083Z,99.993896
2022-11-25T02:29:18.742Z,99.993896
2022-11-25T02:30:28.430Z,99.993896
2022-11-25T02:31:38.139Z,99.993896
2022-11-25T02:32:45.774Z,99.993896
2022-11-25T02:33:53.451Z,99.993896
2022-11-25T02:35:03.147Z,99.993896
2022-11-25T02:36:11.803Z,99.993896
2022-11-25T02:37:21.487Z,99.993896
2022-11-25T02:38:30.186Z,99.993896
2022-11-25T02:39:39.857Z,99.993896
2022-11-25T02:40:48.509Z,99.993896
2022-11-25T02:41:57.168Z,99.993896
2022-11-25T02:43:06.844Z,99.993896
2022-11-25T02:44:14.553Z,99.993896
2022-11-25T02:45:21.220Z,99.993896
2022-11-25T02:46:30.917Z,99.993896
2022-11-25T02:47:39.529Z,99.993896
2022-11-25T02:49:15.212Z,99.993896
2022-11-25T02:49:58.864Z,99.993896
2022-11-25T02:51:07.531Z,99.993896
2022-11-25T02:52:17.226Z,99.993896
2022-11-25T02:53:25.898Z,99.993896
2022-11-25T02:54:33.818Z,99.993896
2022-11-25T02:55:43.274Z,99.993896
2022-11-25T02:56:51.948Z,99.993896
2022-11-25T02:58:00.653Z,99.993896
2022-11-25T02:59:10.337Z,99.993896
2022-11-25T03:00:20.017Z,99.993896
2022-11-25T03:01:29.919Z,99.993896
2022-11-25T03:02:38.442Z,99.993896
2022-11-25T03:03:47.059Z,99.993896
2022-11-25T03:04:56.750Z,99.993896
2022-11-25T03:06:05.421Z,99.993896
2022-11-25T03:07:14.146Z,99.993896
2022-11-25T03:08:23.790Z,99.993896
2022-11-25T03:09:32.455Z,99.993896
2022-11-25T03:10:41.134Z,99.993896
2022-11-25T03:11:49.803Z,99.993896
2022-11-25T03:12:58.487Z,99.993896
2022-11-25T03:14:08.181Z,99.993896
2022-11-25T03:15:16.853Z,99.993896
2022-11-25T03:16:25.594Z,99.993896
2022-11-25T03:17:35.220Z,99.993896
2022-11-25T03:18:45.024Z,99.993896
2022-11-25T03:19:54.699Z,99.993896
2022-11-25T03:21:02.366Z,99.993896
2022-11-25T03:22:10.038Z,99.993896
2022-11-25T03:23:19.705Z,99.993896
2022-11-25T03:24:29.395Z,99.993896
2022-11-25T03:25:39.060Z,99.993896
2022-11-25T03:26:47.720Z,99.993896
2022-11-25T03:27:56.382Z,99.993896
2022-11-25T03:29:05.059Z,99.993896
2022-11-25T03:30:14.752Z,99.993896
2022-11-25T03:31:23.573Z,99.993896
2022-11-25T03:32:33.169Z,99.993896
2022-11-25T03:33:41.864Z,99.993896
2022-11-25T03:34:51.565Z,99.993896
2022-11-25T03:36:01.236Z,99.993896
2022-11-25T03:37:09.928Z,99.993896
2022-11-25T03:38:19.577Z,99.993896
2022-11-25T03:39:27.254Z,99.993896
2022-11-25T03:40:34.932Z,99.993896
2022-11-25T03:41:44.641Z,99.993896
2022-11-25T03:42:53.302Z,99.993896
2022-11-25T03:44:01.976Z,99.993896
2022-11-25T03:45:11.644Z,99.993896
2022-11-25T03:46:21.409Z,99.993896
2022-11-25T03:47:31.095Z,99.993896
2022-11-25T03:48:40.752Z,99.993896
2022-11-25T03:49:50.412Z,99.993896
2022-11-25T03:51:00.126Z,99.993896
2022-11-25T03:52:08.733Z,99.993896
2022-11-25T03:53:18.405Z,99.993896
2022-11-25T03:54:27.101Z,99.993896
2022-11-25T03:55:35.984Z,99.993896
2022-11-25T03:56:45.649Z,99.993896
2022-11-25T03:57:54.371Z,99.993896
2022-11-25T03:59:02.061Z,99.993896
2022-11-25T04:00:11.747Z,99.993896
2022-11-25T04:01:20.483Z,99.993896
2022-11-25T04:02:30.174Z,99.993896
2022-11-25T04:03:39.764Z,99.993896
2022-11-25T04:04:48.437Z,99.993896
2022-11-25T04:05:58.143Z,99.993896
2022-11-25T04:07:07.832Z,99.993896
2022-11-25T04:08:16.489Z,99.993896
2022-11-25T04:09:26.180Z,99.993896
2022-11-25T04:10:34.894Z,99.993896
2022-11-25T04:11:43.572Z,99.993896
2022-11-25T04:12:53.245Z,99.993896
2022-11-25T04:14:03.008Z,99.993896
2022-11-25T04:15:12.730Z,99.993896
2022-11-25T04:16:22.478Z,99.993896
2022-11-25T04:17:31.152Z,99.993896
2022-11-25T04:18:40.852Z,99.993896
2022-11-25T04:19:49.569Z,99.993896
2022-11-25T04:20:58.237Z,99.993896
2022-11-25T04:22:07.061Z,99.993896
2022-11-25T04:23:16.758Z,99.993896
2022-11-25T04:24:26.397Z,99.993896
2022-11-25T04:25:34.064Z,99.993896
2022-11-25T04:26:42.794Z,99.993896
2022-11-25T04:27:52.510Z,99.993896
2022-11-25T04:29:02.205Z,99.993896
2022-11-25T04:30:10.872Z,99.993896
2022-11-25T04:31:19.606Z,99.993896
2022-11-25T04:32:28.228Z,99.993896
2022-11-25T04:33:37.927Z,99.993896
2022-11-25T04:34:46.618Z,99.993896
2022-11-25T04:35:56.307Z,99.993896
2022-11-25T04:37:03.968Z,99.993896
2022-11-25T04:38:11.625Z,99.993896
2022-11-25T04:39:21.379Z,99.993896
2022-11-25T04:40:30.006Z,99.993896
2022-11-25T04:41:39.730Z,99.993896
2022-11-25T04:42:48.396Z,99.993896
2022-11-25T04:43:57.045Z,99.993896
2022-11-25T04:45:22.344Z,99.993896
2022-11-25T04:46:17.846Z,99.993896
2022-11-25T04:47:26.293Z,99.993896
2022-11-25T04:48:35.966Z,99.993896
2022-11-25T04:49:45.646Z,99.993896
2022-11-25T04:50:54.380Z,99.993896
2022-11-25T04:52:03.036Z,99.993896
2022-11-25T04:53:11.691Z,99.993896
2022-11-25T04:54:21.373Z,99.993896
2022-11-25T04:55:31.093Z,99.993896
2022-11-25T04:56:39.754Z,99.993896
2022-11-25T04:57:49.452Z,99.993896
2022-11-25T04:58:58.100Z,99.993896
2022-11-25T05:00:07.808Z,99.993896
2022-11-25T05:01:17.545Z,99.993896
2022-11-25T05:02:26.214Z,99.993896
2022-11-25T05:03:35.848Z,99.993896
2022-11-25T05:04:45.520Z,99.993896
2022-11-25T05:05:54.200Z,99.993896
2022-11-25T05:07:03.870Z,99.993896
2022-11-25T05:08:12.586Z,99.993896
2022-11-25T05:09:21.364Z,99.993896
2022-11-25T05:10:30.054Z,99.993896
2022-11-25T05:11:39.783Z,99.993896
2022-11-25T05:12:49.429Z,99.993896
2022-11-25T05:13:58.246Z,99.993896
2022-11-25T05:15:05.912Z,99.993896
2022-11-25T05:16:15.682Z,99.993896
2022-11-25T05:17:23.320Z,99.993896
2022-11-25T05:18:31.980Z,99.993896
2022-11-25T05:19:41.682Z,99.993896
2022-11-25T05:20:50.389Z,99.993896
2022-11-25T05:22:00.061Z,99.993896
2022-11-25T05:23:08.721Z,99.993896
2022-11-25T05:24:17.395Z,99.993896
2022-11-25T05:25:27.136Z,99.993896
2022-11-25T05:26:35.823Z,99.993896
2022-11-25T05:27:45.542Z,99.993896
2022-11-25T05:28:55.272Z,99.993896
2022-11-25T05:30:05.059Z,99.993896
2022-11-25T05:31:14.906Z,99.993896
2022-11-25T05:32:23.536Z,99.993896
2022-11-25T05:33:32.195Z,99.993896
2022-11-25T05:34:41.889Z,99.993896
2022-11-25T05:35:50.578Z,99.993896
2022-11-25T05:37:00.309Z,99.993896
2022-11-25T05:38:09.104Z,99.993896
2022-11-25T05:39:18.830Z,99.993896
2022-11-25T05:40:28.560Z,99.993896
2022-11-25T05:41:36.258Z,99.993896
2022-11-25T05:42:43.964Z,99.993896
2022-11-25T05:43:53.790Z,99.993896
2022-11-25T05:45:03.443Z,99.993896
2022-11-25T05:46:13.215Z,99.993896
2022-11-25T05:47:21.826Z,99.993896
2022-11-25T05:48:30.635Z,99.993896
2022-11-25T05:49:40.339Z,99.993896
2022-11-25T05:50:47.020Z,99.993896
2022-11-25T05:51:56.072Z,99.993896
2022-11-25T05:53:06.229Z,99.993896
2022-11-25T05:54:15.045Z,99.993896
2022-11-25T05:55:23.720Z,99.993896
2022-11-25T05:56:31.381Z,99.993896
2022-11-25T05:57:41.085Z,99.993896
2022-11-25T05:58:50.834Z,99.993896
2022-11-25T05:59:58.566Z,99.993896
2022-11-25T06:01:06.227Z,99.993896
2022-11-25T06:02:15.976Z,99.993896
2022-11-25T06:03:25.657Z,99.993896
2022-11-25T06:04:35.511Z,99.993896
2022-11-25T06:05:44.976Z,99.993896
2022-11-25T06:06:53.667Z,99.993896
2022-11-25T06:08:03.348Z,99.993896
2022-11-25T06:09:10.022Z,99.993896
2022-11-25T06:10:18.688Z,99.993896
2022-11-25T06:11:28.372Z,99.993896
2022-11-25T06:12:37.124Z,99.993896
2022-11-25T06:13:46.848Z,99.993896
2022-11-25T06:14:56.518Z,99.993896
2022-11-25T06:16:07.771Z,99.993896
2022-11-25T06:17:15.875Z,99.993896
2022-11-25T06:18:22.535Z,99.993896
2022-11-25T06:19:31.194Z,99.993896
2022-11-25T06:20:41.849Z,99.993896
2022-11-25T06:21:50.508Z,99.993896
2022-11-25T06:22:59.223Z,99.993896
2022-11-25T06:24:08.890Z,99.993896
2022-11-25T06:25:17.573Z,99.993896
2022-11-25T06:26:27.272Z,99.993896
2022-11-25T06:27:57.220Z,99.993896
2022-11-25T06:28:46.684Z,99.993896
2022-11-25T06:29:56.387Z,99.993896
2022-11-25T06:31:05.134Z,99.993896
2022-11-25T06:32:14.896Z,99.993896
2022-11-25T06:33:23.541Z,99.993896
2022-11-25T06:34:32.241Z,99.993896
2022-11-25T06:35:40.903Z,99.993896
2022-11-25T06:36:49.616Z,99.993896
2022-11-25T06:37:59.376Z,99.993896
2022-11-25T06:39:07.060Z,99.993896
2022-11-25T06:40:15.788Z,99.993896
2022-11-25T06:41:25.525Z,99.993896
2022-11-25T06:42:34.300Z,99.993896
2022-11-25T06:43:42.969Z,99.993896
2022-11-25T06:44:51.665Z,99.993896
2022-11-25T06:46:00.403Z,99.993896
2022-11-25T06:47:10.105Z,99.993896
2022-11-25T06:48:17.809Z,99.993896
2022-11-25T06:49:26.463Z,99.993896
2022-11-25T06:50:36.171Z,99.993896
2022-11-25T06:51:45.957Z,99.993896
2022-11-25T06:52:54.611Z,99.993896
2022-11-25T06:54:03.303Z,99.993896
2022-11-25T06:55:13.026Z,99.993896
2022-11-25T06:56:22.756Z,99.993896
2022-11-25T06:57:30.429Z,99.993896
2022-11-25T06:58:38.139Z,99.993896
2022-11-25T06:59:47.814Z,99.993896
2022-11-25T07:00:57.495Z,99.993896
2022-11-25T07:02:06.262Z,99.993896
2022-11-25T07:03:14.996Z,99.993896
2022-11-25T07:04:24.674Z,99.993896
2022-11-25T07:05:34.333Z,99.993896
2022-11-25T07:06:43.018Z,99.993896
2022-11-25T07:07:51.771Z,99.993896
2022-11-25T07:09:01.439Z,99.993896
2022-11-25T07:10:09.090Z,99.993896
2022-11-25T07:11:18.757Z,99.993896
2022-11-25T07:12:28.500Z,99.993896
2022-11-25T07:13:36.105Z,99.993896
2022-11-25T07:14:45.825Z,99.993896
2022-11-25T07:15:55.554Z,99.993896
2022-11-25T07:17:08.888Z,99.993896
2022-11-25T07:18:14.992Z,99.993896
2022-11-25T07:19:23.650Z,99.993896
2022-11-25T07:20:33.366Z,99.993896
2022-11-25T07:21:43.014Z,99.993896
2022-11-25T07:22:51.708Z,99.993896
2022-11-25T07:24:01.402Z,99.993896
2022-11-25T07:25:10.067Z,99.993896
2022-11-25T07:26:17.750Z,99.993896
2022-11-25T07:27:27.423Z,99.993896
2022-11-25T07:28:36.102Z,99.993896
2022-11-25T07:30:10.574Z,99.993896
2022-11-25T07:32:10.400Z,99.993896
2022-11-25T07:33:16.787Z,99.993896
2022-11-25T07:34:24.480Z,99.993896
2022-11-25T07:35:32.144Z,99.993896
2022-11-25T07:36:41.860Z,99.993896
2022-11-25T07:37:50.509Z,99.993896
2022-11-25T07:39:00.188Z,99.993896
2022-11-25T07:40:09.868Z,99.993896
2022-11-25T07:41:18.576Z,99.993896
2022-11-25T07:42:28.277Z,99.993896
2022-11-25T07:43:35.991Z,99.993896
2022-11-25T07:44:44.697Z,99.993896
2022-11-25T07:45:54.397Z,99.993896
2022-11-25T07:47:03.058Z,99.993896
2022-11-25T07:48:11.747Z,99.993896
2022-11-25T07:49:21.509Z,99.993896
2022-11-25T07:50:30.179Z,99.993896
2022-11-25T07:51:39.920Z,99.993896
2022-11-25T07:52:47.610Z,99.993896
2022-11-25T07:53:56.284Z,99.993896
2022-11-25T07:55:06.225Z,99.993896
2022-11-25T07:56:15.900Z,99.993896
2022-11-25T07:57:25.607Z,99.993896
2022-11-25T07:58:34.365Z,99.993896
2022-11-25T07:59:43.991Z,99.993896
2022-11-25T08:00:53.728Z,99.993896
2022-11-25T08:02:02.445Z,99.993896
2022-11-25T08:03:12.123Z,99.993896
2022-11-25T08:04:21.740Z,99.993896
2022-11-25T08:05:31.436Z,99.993896
2022-11-25T08:06:41.139Z,99.993896
2022-11-25T08:07:49.859Z,99.993896
2022-11-25T08:08:59.513Z,99.993896
2022-11-25T08:10:09.253Z,99.993896
2022-11-25T08:11:16.936Z,99.993896
2022-11-25T08:12:26.682Z,99.993896
2022-11-25T08:13:36.373Z,99.993896
2022-11-25T08:14:45.074Z,99.993896
2022-11-25T08:15:54.820Z,99.993896
2022-11-25T08:17:04.469Z,99.993896
2022-11-25T08:18:14.185Z,99.993896
2022-11-25T08:19:27.125Z,99.993896
2022-11-25T08:20:34.583Z,99.993896
2022-11-25T08:21:43.340Z,99.993896
2022-11-25T08:22:53.039Z,99.993896
2022-11-25T08:24:02.769Z,99.993896
2022-11-25T08:25:12.406Z,99.993896
2022-11-25T08:26:21.099Z,99.993896
2022-11-25T08:27:29.771Z,99.993896
2022-11-25T08:28:39.461Z,99.993896
2022-11-25T08:29:48.139Z,99.993896
2022-11-25T08:30:57.826Z,99.993896
2022-11-25T08:32:10.382Z,99.993896
2022-11-25T08:33:14.122Z,99.993896
2022-11-25T08:34:23.792Z,99.993896
2022-11-25T08:35:32.598Z,99.993896
2022-11-25T08:36:46.633Z,99.993896
2022-11-25T08:37:52.897Z,99.993896
2022-11-25T08:39:03.250Z,99.993896
2022-11-25T08:40:13.408Z,99.993896
2022-11-25T08:41:23.112Z,99.993896
2022-11-25T08:42:30.754Z,99.993896
2022-11-25T08:43:40.426Z,99.993896
2022-11-25T08:44:50.091Z,99.993896
2022-11-25T08:45:59.864Z,99.993896
2022-11-25T08:47:08.507Z,99.993896
2022-11-25T08:48:18.185Z,99.993896
2022-11-25T08:49:27.920Z,99.993896
2022-11-25T08:50:37.610Z,99.993896
2022-11-25T08:51:46.328Z,99.993896
2022-11-25T08:52:56.015Z,99.993896
2022-11-25T08:54:04.763Z,99.993896
2022-11-25T08:55:14.448Z,99.993896
2022-11-25T08:56:26.147Z,99.993896
2022-11-25T08:57:31.771Z,99.993896
2022-11-25T08:58:41.599Z,99.993896
2022-11-25T08:59:50.327Z,99.993896
2022-11-25T09:00:58.001Z,99.993896
2022-11-25T09:02:07.787Z,99.993896
2022-11-25T09:03:16.470Z,99.993896
2022-11-25T09:04:26.215Z,99.993896
2022-11-25T09:05:35.934Z,99.993896
2022-11-25T09:06:44.656Z,99.963379
2022-11-25T09:07:54.436Z,99.755859
2022-11-25T09:09:02.098Z,99.920654
2022-11-25T09:10:09.766Z,99.816895
2022-11-25T09:11:19.602Z,99.993896
2022-11-25T09:12:29.178Z,99.993896
2022-11-25T09:13:37.954Z,99.993896
2022-11-25T09:14:47.554Z,99.993896
2022-11-25T09:15:56.349Z,99.993896
2022-11-25T09:17:06.036Z,99.993896
2022-11-25T09:18:14.751Z,99.993896
2022-11-25T09:19:22.485Z,99.993896
2022-11-25T09:20:32.267Z,99.993896
2022-11-25T09:21:41.950Z,99.993896
2022-11-25T09:22:50.656Z,99.993896
2022-11-25T09:23:59.357Z,99.993896
2022-11-25T09:25:08.032Z,99.993896
2022-11-25T09:26:17.777Z,99.993896
2022-11-25T09:27:25.478Z,99.993896
2022-11-25T09:28:34.285Z,99.993896
2022-11-25T09:29:43.981Z,99.993896
2022-11-25T09:30:53.764Z,99.993896
2022-11-25T09:32:03.424Z,99.993896
2022-11-25T09:33:13.227Z,99.993896
2022-11-25T09:34:22.892Z,99.993896
2022-11-25T09:35:32.590Z,99.993896
2022-11-25T09:36:40.351Z,99.993896
2022-11-25T09:37:49.026Z,99.993896
2022-11-25T09:38:58.729Z,99.993896
2022-11-25T09:40:08.433Z,99.987793
2022-11-25T09:41:17.155Z,99.053955
2022-11-25T09:42:26.847Z,98.846436
2022-11-25T09:43:35.511Z,98.846436
2022-11-25T09:44:45.262Z,99.053955
2022-11-25T09:45:54.945Z,99.053955
2022-11-25T09:47:03.638Z,98.803711
2022-11-25T09:48:13.318Z,98.803711
2022-11-25T09:49:21.973Z,98.907471
2022-11-25T09:50:31.711Z,98.962402
2022-11-25T09:51:40.405Z,98.754883
2022-11-25T09:52:49.176Z,97.619629
2022-11-25T09:53:58.861Z,97.10083
2022-11-25T09:55:07.542Z,96.893311
2022-11-25T09:56:15.258Z,96.435547
2022-11-25T09:57:24.947Z,96.331787
2022-11-25T09:58:33.637Z,96.020508
2022-11-25T09:59:43.317Z,95.770264
2022-11-25T10:00:52.024Z,95.874023
2022-11-25T10:02:00.816Z,96.240234
2022-11-25T10:03:10.523Z,95.574951
2022-11-25T10:04:19.115Z,94.354248
2022-11-25T10:05:28.895Z,92.29126
2022-11-25T10:06:38.713Z,92.041016
2022-11-25T10:07:48.532Z,91.339111
2022-11-25T10:08:57.238Z,90.509033
2022-11-25T10:10:05.971Z,89.544678
2022-11-25T10:11:14.690Z,87.237549
2022-11-25T10:12:24.384Z,87.237549
2022-11-25T10:13:33.120Z,85.791016
2022-11-25T10:14:41.859Z,85.894775
2022-11-25T10:15:51.581Z,86.102295
2022-11-25T10:17:00.232Z,86.26709
2022-11-25T10:18:09.948Z,85.650635
2022-11-25T10:19:18.657Z,85.339355
2022-11-25T10:20:27.332Z,84.246826
2022-11-25T10:21:37.028Z,83.59375
2022-11-25T10:22:44.850Z,83.94165
2022-11-25T10:23:52.516Z,84.454346
2022-11-25T10:25:02.261Z,84.765625
2022-11-25T10:26:12.003Z,84.143066
2022-11-25T10:27:20.677Z,84.350586
2022-11-25T10:28:30.374Z,83.48999
2022-11-25T10:29:40.081Z,84.210205
2022-11-25T10:30:48.874Z,83.59375
2022-11-25T10:31:57.477Z,83.306885
2022-11-25T10:33:07.207Z,81.072998
2022-11-25T10:34:15.871Z,81.445312
2022-11-25T10:35:25.614Z,79.559326
2022-11-25T10:36:35.346Z,79.321289
2022-11-25T10:37:45.021Z,77.331543
2022-11-25T10:38:54.724Z,77.502441
2022-11-25T10:40:03.437Z,77.947998
2022-11-25T10:41:12.100Z,77.294922
2022-11-25T10:42:21.784Z,76.544189
2022-11-25T10:43:31.824Z,75.109863
2022-11-25T10:44:38.300Z,75.964355
2022-11-25T10:45:47.823Z,76.239014
2022-11-25T10:47:13.275Z,75.793457
2022-11-25T10:48:08.213Z,74.530029
2022-11-25T10:49:16.994Z,74.11499
2022-11-25T10:50:25.659Z,74.798584
2022-11-25T10:51:35.401Z,73.535156
2022-11-25T10:52:43.068Z,71.42334
2022-11-25T10:53:50.768Z,72.515869
2022-11-25T10:55:00.489Z,74.21875
2022-11-25T10:56:09.172Z,75.073242
2022-11-25T10:57:18.841Z,74.285889
2022-11-25T10:58:27.541Z,71.697998
2022-11-25T10:59:36.263Z,70.843506
2022-11-25T11:00:45.939Z,70.507812
2022-11-25T11:01:54.679Z,70.507812
2022-11-25T11:03:03.447Z,69.995117
2022-11-25T11:04:13.248Z,69.927979
2022-11-25T11:05:23.098Z,70.471191
2022-11-25T11:06:31.722Z,72.003174
2022-11-25T11:07:41.464Z,72.924805
2022-11-25T11:08:51.124Z,71.899414
2022-11-25T11:10:00.828Z,70.53833
2022-11-25T11:11:10.549Z,70.098877
2022-11-25T11:12:20.239Z,69.9646
2022-11-25T11:13:28.892Z,70.574951
2022-11-25T11:14:38.011Z,69.689941
2022-11-25T11:15:46.321Z,70.196533
2022-11-25T11:16:56.016Z,69.073486
2022-11-25T11:18:04.737Z,69.927979
2022-11-25T11:19:14.411Z,70.098877
2022-11-25T11:20:23.134Z,70.404053
2022-11-25T11:21:31.858Z,69.006348
2022-11-25T11:22:41.582Z,70.367432
2022-11-25T11:23:50.278Z,71.557617
2022-11-25T11:24:58.944Z,73.095703
2022-11-25T11:26:07.625Z,73.950195
2022-11-25T11:27:17.297Z,73.468018
2022-11-25T11:28:27.002Z,76.202393
2022-11-25T11:29:35.703Z,76.818848
2022-11-25T11:30:43.371Z,76.513672
2022-11-25T11:31:53.083Z,76.135254
2022-11-25T11:33:02.754Z,77.813721
2022-11-25T11:34:11.464Z,78.289795
2022-11-25T11:35:21.184Z,77.062988
2022-11-25T11:36:29.854Z,76.959229
2022-11-25T11:37:39.533Z,77.227783
2022-11-25T11:38:49.261Z,77.539062
2022-11-25T11:39:57.116Z,76.513672
2022-11-25T11:41:06.809Z,76.922607
2022-11-25T11:42:15.532Z,76.171875
2022-11-25T11:43:24.242Z,77.197266
2022-11-25T11:44:32.962Z,75.55542
2022-11-25T11:45:41.643Z,75.756836
2022-11-25T11:46:51.380Z,76.239014
2022-11-25T11:48:00.005Z,75.311279
2022-11-25T11:49:07.725Z,76.544189
2022-11-25T11:50:17.402Z,75.622559
2022-11-25T11:51:26.148Z,76.44043
2022-11-25T11:52:35.839Z,76.031494
2022-11-25T11:53:44.623Z,77.56958
2022-11-25T11:54:54.259Z,75.726318
2022-11-25T11:56:33.432Z,76.031494
2022-11-25T11:57:13.667Z,76.44043
2022-11-25T11:58:21.352Z,75.006104
2022-11-25T11:59:31.021Z,75.726318
2022-11-25T12:00:39.715Z,76.403809
2022-11-25T12:01:49.442Z,75.756836
2022-11-25T12:02:58.099Z,74.597168
2022-11-25T12:04:06.724Z,73.980713
2022-11-25T12:05:16.386Z,74.664307
2022-11-25T12:06:25.054Z,75.549316
2022-11-25T12:07:32.835Z,74.21875
2022-11-25T12:08:42.536Z,72.546387
2022-11-25T12:09:51.255Z,72.546387
2022-11-25T12:11:00.902Z,71.905518
2022-11-25T12:12:09.599Z,70.880127
2022-11-25T12:13:18.323Z,71.221924
2022-11-25T12:14:28.014Z,70.306396
2022-11-25T12:15:34.671Z,70.477295
2022-11-25T12:16:43.435Z,69.726562
2022-11-25T12:17:53.066Z,68.572998
2022-11-25T12:19:02.740Z,67.248535
2022-11-25T12:20:12.460Z,66.845703
2022-11-25T12:21:21.145Z,67.352295
2022-11-25T12:22:30.807Z,65.41748
2022-11-25T12:23:40.554Z,66.503906
2022-11-25T12:24:50.280Z,66.30249
2022-11-25T12:26:00.026Z,65.185547
2022-11-25T12:27:10.009Z,65.460205
2022-11-25T12:28:19.691Z,65.863037
2022-11-25T12:29:29.359Z,64.813232
2022-11-25T12:30:39.116Z,64.715576
2022-11-25T12:31:47.950Z,64.886475
2022-11-25T12:32:56.578Z,63.262939
2022-11-25T12:34:05.270Z,63.769531
2022-11-25T12:35:14.933Z,63.128662
2022-11-25T12:36:23.607Z,63.94043
2022-11-25T12:37:31.323Z,62.243652
2022-11-25T12:38:40.983Z,61.633301
2022-11-25T12:39:50.657Z,63.05542
2022-11-25T12:41:00.326Z,63.665771
2022-11-25T12:42:09.025Z,63.128662
2022-11-25T12:43:17.716Z,62.927246
2022-11-25T12:44:27.438Z,62.792969
2022-11-25T12:45:35.152Z,61.474609
2022-11-25T12:46:42.749Z,62.792969
2022-11-25T12:47:52.424Z,62.561035
2022-11-25T12:49:02.129Z,61.779785
2022-11-25T12:50:11.784Z,61.981201
2022-11-25T12:51:21.441Z,61.706543
2022-11-25T12:52:30.139Z,63.665771
2022-11-25T12:53:38.793Z,63.568115
2022-11-25T12:54:47.476Z,63.842773
2022-11-25T12:55:56.159Z,62.182617
2022-11-25T12:57:05.838Z,62.390137
2022-11-25T12:58:14.633Z,61.877441
2022-11-25T12:59:23.254Z,61.572266
2022-11-25T13:00:47.278Z,61.877441
2022-11-25T13:01:41.773Z,61.572266
2022-11-25T13:02:51.369Z,62.255859
2022-11-25T13:03:58.947Z,62.255859
2022-11-25T13:05:25.523Z,61.853027
2022-11-25T13:06:19.313Z,61.199951
2022-11-25T13:07:29.016Z,62.011719
2022-11-25T13:08:37.640Z,61.968994
2022-11-25T13:09:46.336Z,64.001465